Oesman Sadik Airport, Labuha

Jump to: basic info | weather | runways | comments

Related pages: nearby airports | nearby navaids | notams | map

Basic information (top)

Codes: LAH WAPH
Location: lon -0.635259, lat 127.501999, elev 49 ft / 15 m msl
Status: small_airport

Weather (top)

Current conditions for Mutiara Airport 456nm (845km) W (rec'd 2012/01/16 03:00Z):

WAML 160300Z 34005KT 9999 SCT019 31/27 Q1007 NOSIG

Airport forecast (rec'd 2014/03/16 06:20Z):

TAF WAPH 120500Z 1206/1218 36006KT 9000 SCT017 
      TEMPO 1206/1210 FEW016CB

Runways (top)

04/24: 4,300 x 75 ft (1,311 x 23 m) — other (asphalt) — not lighted

Latest comments (top)

No comments yet for Oesman Sadik Airport, Labuha

More... (top)

See also NOTAMs and nearby airports and navaids, or visit the Oesman Sadik Airport, Labuha page at the main OurAirports website..